createdAt,value
2019-03-20T00:01:16.757Z,59.40
2019-03-20T00:03:46.714Z,59.50
2019-03-20T00:06:16.503Z,59.80
2019-03-20T00:08:47.502Z,59.90
2019-03-20T00:11:17.452Z,60.10
2019-03-20T00:13:48.262Z,60.10
2019-03-20T00:16:18.151Z,60.50
2019-03-20T00:18:48.022Z,60.60
2019-03-20T00:21:17.905Z,61.10
2019-03-20T00:23:47.669Z,60.80
2019-03-20T00:26:17.650Z,60.70
2019-03-20T00:28:47.533Z,60.90
2019-03-20T00:31:17.618Z,61.10
2019-03-20T00:33:47.433Z,61.30
2019-03-20T00:36:18.309Z,61.50
2019-03-20T00:38:48.127Z,61.50
2019-03-20T00:41:17.886Z,61.30
2019-03-20T00:43:47.693Z,62.20
2019-03-20T00:46:17.658Z,62.10
2019-03-20T00:48:48.569Z,62.50
2019-03-20T00:51:18.366Z,62.80
2019-03-20T00:53:48.272Z,63.30
2019-03-20T00:56:18.368Z,64.30
2019-03-20T00:58:48.134Z,64.00
2019-03-20T01:01:18.770Z,64.80
2019-03-20T01:03:48.598Z,64.50
2019-03-20T01:06:18.370Z,64.50
2019-03-20T01:08:48.198Z,64.80
2019-03-20T01:11:18.314Z,64.60
2019-03-20T01:13:48.084Z,64.70
2019-03-20T01:16:17.842Z,64.90
2019-03-20T01:18:48.002Z,65.00
2019-03-20T01:21:17.760Z,65.20
2019-03-20T01:23:47.567Z,64.90
2019-03-20T01:26:17.522Z,65.20
2019-03-20T01:28:47.394Z,65.40
2019-03-20T01:31:17.873Z,65.00
2019-03-20T01:33:47.762Z,65.40
2019-03-20T01:36:17.672Z,65.50
2019-03-20T01:38:47.433Z,65.20
2019-03-20T01:41:17.401Z,65.20
2019-03-20T01:43:47.164Z,64.80
2019-03-20T01:46:16.930Z,65.10
2019-03-20T01:48:46.894Z,65.40
2019-03-20T01:51:20.717Z,65.70
2019-03-20T01:53:51.496Z,66.00
2019-03-20T01:56:21.398Z,66.10
2019-03-20T01:58:51.167Z,66.30
2019-03-20T02:01:21.046Z,66.60
2019-03-20T02:03:50.869Z,66.80
2019-03-20T02:06:20.679Z,66.70
2019-03-20T02:08:50.481Z,66.40
2019-03-20T02:11:20.297Z,66.00
2019-03-20T02:13:50.054Z,66.20
2019-03-20T02:16:19.929Z,66.60
2019-03-20T02:18:49.698Z,66.70
2019-03-20T02:21:19.502Z,66.80
2019-03-20T02:23:49.503Z,66.90
2019-03-20T02:26:20.061Z,66.80
2019-03-20T02:28:49.925Z,67.00
2019-03-20T02:31:19.730Z,67.00
2019-03-20T02:33:49.611Z,66.90
2019-03-20T02:36:19.373Z,67.10
2019-03-20T02:38:49.129Z,66.70
2019-03-20T02:41:18.941Z,66.40
2019-03-20T02:43:48.829Z,66.10
2019-03-20T02:46:18.756Z,66.00
2019-03-20T02:48:48.738Z,65.90
2019-03-20T02:51:18.545Z,65.70
2019-03-20T02:53:48.439Z,65.80
2019-03-20T02:56:18.411Z,65.80
2019-03-20T02:58:48.231Z,66.40
2019-03-20T03:01:18.015Z,66.70
2019-03-20T03:03:48.748Z,67.40
2019-03-20T03:06:18.512Z,67.90
2019-03-20T03:08:48.414Z,67.70
2019-03-20T03:11:18.434Z,67.80
2019-03-20T03:13:48.250Z,67.90
2019-03-20T03:16:18.098Z,67.90
2019-03-20T03:18:48.068Z,67.50
2019-03-20T03:21:17.874Z,67.10
2019-03-20T03:23:47.682Z,67.10
2019-03-20T03:26:17.534Z,67.10
2019-03-20T03:28:47.294Z,67.30
2019-03-20T03:31:17.111Z,67.50
2019-03-20T03:33:46.949Z,67.60
2019-03-20T03:36:21.471Z,67.40
2019-03-20T03:38:48.292Z,68.30
2019-03-20T03:41:18.777Z,67.60
2019-03-20T03:43:48.698Z,67.30
2019-03-20T03:46:18.581Z,67.30
2019-03-20T03:48:48.503Z,67.60
2019-03-20T03:51:18.312Z,67.50
2019-03-20T03:53:48.227Z,67.50
2019-03-20T03:56:18.115Z,67.60
2019-03-20T03:58:47.879Z,67.40
2019-03-20T04:01:17.958Z,67.40
2019-03-20T04:03:48.121Z,67.60
2019-03-20T04:06:18.891Z,67.80
2019-03-20T04:08:49.733Z,67.80
2019-03-20T04:11:19.547Z,67.70
2019-03-20T04:13:50.273Z,67.80
2019-03-20T04:16:20.115Z,67.70
2019-03-20T04:18:49.915Z,67.70
2019-03-20T04:21:19.795Z,67.70
2019-03-20T04:23:49.617Z,67.70
2019-03-20T04:26:19.379Z,67.80
2019-03-20T04:28:49.313Z,67.80
2019-03-20T04:31:19.230Z,67.90
2019-03-20T04:33:49.026Z,68.30
2019-03-20T04:36:18.909Z,68.90
2019-03-20T04:38:48.883Z,68.90
2019-03-20T04:41:18.656Z,68.50
2019-03-20T04:43:48.412Z,68.50
2019-03-20T04:46:18.302Z,69.10
2019-03-20T04:48:48.073Z,69.30
2019-03-20T04:51:17.825Z,69.50
2019-03-20T04:53:47.999Z,70.00
2019-03-20T04:56:17.789Z,70.10
2019-03-20T04:58:47.555Z,70.10
2019-03-20T05:01:17.367Z,70.40
2019-03-20T05:03:47.480Z,70.90
2019-03-20T05:06:17.358Z,70.80
2019-03-20T05:08:47.329Z,70.90
2019-03-20T05:11:17.161Z,70.30
2019-03-20T05:13:46.987Z,69.80
2019-03-20T05:16:16.795Z,69.60
2019-03-20T05:18:47.050Z,69.50
2019-03-20T05:21:17.010Z,69.40
2019-03-20T05:23:46.800Z,69.30
2019-03-20T05:26:16.762Z,69.30
2019-03-20T05:28:47.293Z,69.10
2019-03-20T05:31:17.118Z,69.70
2019-03-20T05:33:46.873Z,70.10
2019-03-20T05:36:16.673Z,70.00
2019-03-20T05:38:46.546Z,70.20
2019-03-20T05:41:16.430Z,70.20
2019-03-20T05:43:46.379Z,70.20
2019-03-20T05:46:17.231Z,70.20
2019-03-20T05:48:46.991Z,70.20
2019-03-20T05:51:16.794Z,70.40
2019-03-20T05:53:46.634Z,71.20
2019-03-20T05:56:16.588Z,72.00
2019-03-20T05:58:46.473Z,72.50
2019-03-20T06:01:16.429Z,72.50
2019-03-20T06:03:46.269Z,72.40
2019-03-20T06:06:16.150Z,71.60
2019-03-20T06:08:46.726Z,70.40
2019-03-20T06:11:16.524Z,68.60
2019-03-20T06:13:46.606Z,66.80
2019-03-20T06:16:16.415Z,65.00
2019-03-20T06:18:46.462Z,63.30
2019-03-20T06:21:16.289Z,61.50
2019-03-20T06:23:46.170Z,59.90
2019-03-20T06:26:15.976Z,58.40
2019-03-20T06:28:46.878Z,57.20
2019-03-20T06:31:18.779Z,56.40
2019-03-20T06:33:49.005Z,55.00
2019-03-20T06:36:18.858Z,53.60
2019-03-20T06:38:48.794Z,52.60
2019-03-20T06:41:18.677Z,51.30
2019-03-20T06:43:48.513Z,50.40
2019-03-20T06:46:19.238Z,49.30
2019-03-20T06:48:49.110Z,48.50
2019-03-20T06:51:18.998Z,47.90
2019-03-20T06:53:48.988Z,47.10
2019-03-20T06:56:19.537Z,46.30
2019-03-20T06:58:52.424Z,45.70
2019-03-20T07:01:25.465Z,44.80
2019-03-20T07:04:15.630Z,44.10
2019-03-20T07:06:54.606Z,43.60
2019-03-20T07:09:39.858Z,42.80
2019-03-20T07:12:09.760Z,42.50
2019-03-20T07:14:40.359Z,41.40
2019-03-20T07:17:10.332Z,40.90
2019-03-20T07:19:40.286Z,40.60
2019-03-20T07:22:10.947Z,39.70
2019-03-20T07:24:40.922Z,39.40
2019-03-20T07:27:10.754Z,38.90
2019-03-20T07:29:40.578Z,38.80
2019-03-20T07:32:10.557Z,38.40
2019-03-20T07:34:40.394Z,37.90
2019-03-20T07:37:10.194Z,37.70
2019-03-20T07:39:40.066Z,37.00
2019-03-20T07:42:09.916Z,36.70
2019-03-20T07:44:39.773Z,36.00
2019-03-20T07:47:09.575Z,35.90
2019-03-20T07:49:39.387Z,35.80
2019-03-20T07:52:09.168Z,35.30
2019-03-20T07:54:39.849Z,34.90
2019-03-20T07:57:09.672Z,34.70
2019-03-20T07:59:39.553Z,34.20
2019-03-20T08:02:09.421Z,34.10
2019-03-20T08:04:39.313Z,33.30
2019-03-20T08:07:09.133Z,33.50
2019-03-20T08:09:39.818Z,33.10
2019-03-20T08:12:09.817Z,33.10
2019-03-20T08:14:39.658Z,32.90
2019-03-20T08:17:09.474Z,33.00
2019-03-20T08:19:39.414Z,32.50
2019-03-20T08:22:10.046Z,32.40
2019-03-20T08:24:40.849Z,32.50
2019-03-20T08:27:10.751Z,32.10
2019-03-20T08:29:40.578Z,31.70
2019-03-20T08:32:10.360Z,31.30
2019-03-20T08:34:40.886Z,31.20
2019-03-20T08:37:10.898Z,30.90
2019-03-20T08:39:41.430Z,30.70
2019-03-20T08:44:58.998Z,29.70
2019-03-20T08:47:29.194Z,29.60
2019-03-20T08:49:59.129Z,29.00
2019-03-20T08:52:28.950Z,29.10
2019-03-20T08:54:58.890Z,28.40
2019-03-20T08:57:28.728Z,28.20
2019-03-20T08:59:58.652Z,27.90
2019-03-20T09:02:28.561Z,27.90
2019-03-20T09:04:58.407Z,27.70
2019-03-20T09:07:28.377Z,27.40
2019-03-20T09:09:58.274Z,27.20
2019-03-20T09:12:28.441Z,26.80
2019-03-20T09:14:58.293Z,26.80
2019-03-20T09:17:28.161Z,26.70
2019-03-20T09:19:58.029Z,26.70
2019-03-20T09:22:28.621Z,26.50
2019-03-20T09:24:59.442Z,26.10
2019-03-20T09:27:29.249Z,26.00
2019-03-20T09:29:59.126Z,25.50
2019-03-20T09:32:29.208Z,25.80
2019-03-20T09:34:59.027Z,26.00
2019-03-20T09:37:28.942Z,25.50
2019-03-20T09:39:59.542Z,25.70
2019-03-20T09:42:29.433Z,26.20
2019-03-20T09:44:59.453Z,26.30
2019-03-20T09:47:29.334Z,27.10
2019-03-20T09:49:59.298Z,27.40
2019-03-20T09:52:29.106Z,27.90
2019-03-20T09:54:58.908Z,28.30
2019-03-20T09:57:28.722Z,28.30
2019-03-20T09:59:58.537Z,28.90
2019-03-20T10:02:28.508Z,29.20
2019-03-20T10:04:58.368Z,29.70
2019-03-20T10:07:28.293Z,30.00
2019-03-20T10:09:58.109Z,29.90
2019-03-20T10:12:27.972Z,29.60
2019-03-20T10:14:58.514Z,29.60
2019-03-20T10:17:28.581Z,29.90
2019-03-20T10:19:58.596Z,29.90
2019-03-20T10:22:28.477Z,29.90
2019-03-20T10:24:58.534Z,29.80
2019-03-20T10:27:29.180Z,30.50
2019-03-20T10:29:59.066Z,31.00
2019-03-20T10:32:29.769Z,30.90
2019-03-20T10:34:59.566Z,31.10
2019-03-20T10:37:29.433Z,31.40
2019-03-20T10:39:59.559Z,31.80
2019-03-20T10:42:29.470Z,32.40
2019-03-20T10:44:59.332Z,33.10
2019-03-20T10:47:30.134Z,32.30
2019-03-20T10:49:59.993Z,32.50
2019-03-20T10:52:29.925Z,31.30
2019-03-20T10:55:00.071Z,31.30
2019-03-20T10:57:30.175Z,31.30
2019-03-20T11:00:00.192Z,31.80
2019-03-20T11:02:30.237Z,32.10
2019-03-20T11:05:00.355Z,32.30
2019-03-20T11:07:30.323Z,32.40
2019-03-20T11:10:00.265Z,32.40
2019-03-20T11:12:30.434Z,32.70
2019-03-20T11:15:00.386Z,32.70
2019-03-20T11:17:30.404Z,32.70
2019-03-20T11:20:00.494Z,32.60
2019-03-20T11:22:30.432Z,32.60
2019-03-20T11:25:01.961Z,33.00
2019-03-20T11:27:33.256Z,32.70
2019-03-20T11:30:04.610Z,33.40
2019-03-20T11:32:34.530Z,33.20
2019-03-20T11:35:05.104Z,32.40
2019-03-20T11:37:34.959Z,32.40
2019-03-20T11:40:08.564Z,32.20
2019-03-20T11:42:40.734Z,32.30
2019-03-20T11:45:11.183Z,32.40
2019-03-20T11:47:41.753Z,33.20
2019-03-20T11:50:17.208Z,32.60
2019-03-20T11:52:48.041Z,32.50
2019-03-20T11:55:17.893Z,32.60
2019-03-20T11:57:47.837Z,32.20
2019-03-20T12:00:19.410Z,32.00
2019-03-20T12:02:49.272Z,31.40
2019-03-20T12:05:19.308Z,32.10
2019-03-20T12:07:50.207Z,32.10
2019-03-20T12:10:25.205Z,31.80
2019-03-20T12:12:55.847Z,31.90
2019-03-20T12:15:25.773Z,32.30
2019-03-20T12:17:55.718Z,32.90
2019-03-20T12:20:26.187Z,32.80
2019-03-20T12:22:56.377Z,32.30
2019-03-20T12:25:33.704Z,32.30
2019-03-20T12:28:03.624Z,31.70
2019-03-20T12:30:34.818Z,32.20
2019-03-20T12:33:05.773Z,32.10
2019-03-20T12:35:45.878Z,32.20
2019-03-20T12:38:15.748Z,32.20
2019-03-20T12:40:45.783Z,31.90
2019-03-20T12:43:15.821Z,31.70
2019-03-20T12:45:45.676Z,31.90
2019-03-20T12:48:17.570Z,32.00
2019-03-20T12:50:47.432Z,32.10
2019-03-20T12:53:31.818Z,32.30
2019-03-20T12:56:02.421Z,32.00
2019-03-20T12:58:32.426Z,31.90
2019-03-20T13:01:02.436Z,31.90
2019-03-20T13:03:32.298Z,31.90
2019-03-20T13:06:02.158Z,32.30
2019-03-20T13:08:32.010Z,32.20
2019-03-20T13:11:01.936Z,32.10
2019-03-20T13:13:31.858Z,32.30
2019-03-20T13:16:01.877Z,32.50
2019-03-20T13:18:31.885Z,32.50
2019-03-20T13:21:01.816Z,32.40
2019-03-20T13:23:36.663Z,32.50
2019-03-20T13:26:06.529Z,32.50
2019-03-20T13:28:37.065Z,32.70
2019-03-20T13:31:15.607Z,32.40
2019-03-20T13:33:45.480Z,32.60
2019-03-20T13:36:15.582Z,32.40
2019-03-20T13:38:45.465Z,32.00
2019-03-20T13:41:15.325Z,32.20
2019-03-20T13:43:45.317Z,32.70
2019-03-20T13:46:15.144Z,33.00
2019-03-20T13:48:45.117Z,32.90
2019-03-20T13:51:15.053Z,32.80
2019-03-20T13:53:44.934Z,32.60
2019-03-20T13:56:14.812Z,32.50
2019-03-20T13:58:44.889Z,32.30
2019-03-20T14:01:15.517Z,32.90
2019-03-20T14:03:45.737Z,33.00
2019-03-20T14:06:15.741Z,33.10
2019-03-20T14:08:45.676Z,33.20
2019-03-20T14:11:15.514Z,33.00
2019-03-20T14:13:46.148Z,32.80
2019-03-20T14:16:16.085Z,32.70
2019-03-20T14:18:46.022Z,32.20
2019-03-20T14:21:15.888Z,31.90
2019-03-20T14:23:45.840Z,31.90
2019-03-20T14:26:15.798Z,31.90
2019-03-20T14:28:45.666Z,31.40
2019-03-20T14:31:15.521Z,31.80
2019-03-20T14:33:45.426Z,32.10
2019-03-20T14:36:15.292Z,32.00
2019-03-20T14:38:45.481Z,31.60
2019-03-20T14:41:21.659Z,31.50
2019-03-20T14:43:47.812Z,31.40
2019-03-20T14:46:17.668Z,31.40
2019-03-20T14:48:47.722Z,31.40
2019-03-20T14:51:17.662Z,31.60
2019-03-20T14:53:47.584Z,31.80
2019-03-20T14:56:18.351Z,31.80
2019-03-20T14:58:48.577Z,31.80
2019-03-20T15:01:18.713Z,31.80
2019-03-20T15:03:49.713Z,31.60
2019-03-20T15:06:19.584Z,31.40
2019-03-20T15:08:49.503Z,31.40
2019-03-20T15:11:19.433Z,31.70
2019-03-20T15:13:49.295Z,31.70
2019-03-20T15:16:19.833Z,32.00
2019-03-20T15:18:49.696Z,31.90
2019-03-20T15:21:19.637Z,32.10
2019-03-20T15:23:49.519Z,32.00
2019-03-20T15:26:19.436Z,31.80
2019-03-20T15:28:50.084Z,31.80
2019-03-20T15:31:20.012Z,31.70
2019-03-20T15:33:49.873Z,31.20
2019-03-20T15:36:21.228Z,31.40
2019-03-20T15:38:51.098Z,31.70
2019-03-20T15:41:21.012Z,31.90
2019-03-20T15:43:51.014Z,31.60
2019-03-20T15:46:20.991Z,31.80
2019-03-20T15:48:50.842Z,31.80
2019-03-20T15:51:20.693Z,31.70
2019-03-20T15:53:50.620Z,31.60
2019-03-20T15:56:20.734Z,31.80
2019-03-20T15:58:50.698Z,31.80
2019-03-20T16:01:20.575Z,32.00
2019-03-20T16:03:50.424Z,32.10
2019-03-20T16:06:21.010Z,32.10
2019-03-20T16:08:50.857Z,32.40
2019-03-20T16:11:20.873Z,31.80
2019-03-20T16:13:50.718Z,31.50
2019-03-20T16:16:20.725Z,31.50
2019-03-20T16:18:50.565Z,31.50
2019-03-20T16:21:20.422Z,31.40
2019-03-20T16:23:50.299Z,31.50
2019-03-20T16:26:20.221Z,31.70
2019-03-20T16:28:50.136Z,31.60
2019-03-20T16:31:19.998Z,31.30
2019-03-20T16:33:49.814Z,31.40
2019-03-20T16:36:19.821Z,31.60
2019-03-20T16:38:49.637Z,31.40
2019-03-20T16:41:19.636Z,31.60
2019-03-20T16:43:49.450Z,31.70
2019-03-20T16:46:19.553Z,32.30
2019-03-20T16:48:50.100Z,32.20
2019-03-20T16:51:19.977Z,32.40
2019-03-20T16:53:49.857Z,32.60
2019-03-20T16:56:19.798Z,32.70
2019-03-20T16:58:49.797Z,32.80
2019-03-20T17:01:19.651Z,32.50
2019-03-20T17:03:49.489Z,32.50
2019-03-20T17:06:19.425Z,32.30
2019-03-20T17:08:49.852Z,32.30
2019-03-20T17:11:30.441Z,32.20
2019-03-20T17:13:51.366Z,32.30
2019-03-20T17:16:22.176Z,32.40
2019-03-20T17:18:51.984Z,32.40
2019-03-20T17:21:21.802Z,32.60
2019-03-20T17:23:51.664Z,32.60
2019-03-20T17:26:21.532Z,32.60
2019-03-20T17:28:51.580Z,32.60
2019-03-20T17:31:21.580Z,32.60
2019-03-20T17:33:51.501Z,32.70
2019-03-20T17:36:21.363Z,32.90
2019-03-20T17:38:51.489Z,33.40
2019-03-20T17:41:21.339Z,35.10
2019-03-20T17:43:51.189Z,36.10
2019-03-20T17:46:21.126Z,36.20
2019-03-20T17:48:51.164Z,36.70
2019-03-20T17:51:21.064Z,37.00
2019-03-20T17:53:51.884Z,37.90
2019-03-20T17:56:21.936Z,38.00
2019-03-20T17:58:51.746Z,38.30
2019-03-20T18:01:21.584Z,38.40
2019-03-20T18:03:51.433Z,39.50
2019-03-20T18:06:21.375Z,40.00
2019-03-20T18:08:51.233Z,39.90
2019-03-20T18:11:21.217Z,40.00
2019-03-20T18:13:51.068Z,40.00
2019-03-20T18:16:21.009Z,40.60
2019-03-20T18:18:50.812Z,41.50
2019-03-20T18:21:20.651Z,41.50
2019-03-20T18:23:50.496Z,42.50
2019-03-20T18:26:20.359Z,42.50
2019-03-20T18:28:50.244Z,42.10
2019-03-20T18:31:20.113Z,42.20
2019-03-20T18:33:49.958Z,42.50
2019-03-20T18:36:20.729Z,42.80
2019-03-20T18:38:50.563Z,43.90
2019-03-20T18:41:20.570Z,44.60
2019-03-20T18:43:51.343Z,45.10
2019-03-20T18:46:21.421Z,44.90
2019-03-20T18:48:52.188Z,44.70
2019-03-20T18:51:21.949Z,45.00
2019-03-20T18:53:51.718Z,45.40
2019-03-20T18:56:21.512Z,45.70
2019-03-20T18:58:51.322Z,45.90
2019-03-20T19:01:21.077Z,46.10
2019-03-20T19:03:51.130Z,45.60
2019-03-20T19:06:29.443Z,45.40
2019-03-20T19:08:59.355Z,45.60
2019-03-20T19:11:29.294Z,46.00
2019-03-20T19:13:59.108Z,46.20
2019-03-20T19:16:28.890Z,46.00
2019-03-20T19:18:58.649Z,46.50
2019-03-20T19:21:28.520Z,46.50
2019-03-20T19:23:59.288Z,46.20
2019-03-20T19:26:31.035Z,46.00
2019-03-20T19:29:00.870Z,47.00
2019-03-20T19:31:30.755Z,47.40
2019-03-20T19:34:00.797Z,48.00
2019-03-20T19:36:30.635Z,48.20
2019-03-20T19:39:01.156Z,48.20
2019-03-20T19:41:31.841Z,48.40
2019-03-20T19:44:01.665Z,48.60
2019-03-20T19:46:31.504Z,48.20
2019-03-20T19:49:01.277Z,48.90
2019-03-20T19:51:31.053Z,49.20
2019-03-20T19:54:01.095Z,49.70
2019-03-20T19:56:30.890Z,49.60
2019-03-20T19:59:00.688Z,49.20
2019-03-20T20:01:30.510Z,49.60
2019-03-20T20:04:00.281Z,50.00
2019-03-20T20:06:30.041Z,49.90
2019-03-20T20:09:00.050Z,49.80
2019-03-20T20:11:29.893Z,49.90
2019-03-20T20:13:59.854Z,50.40
2019-03-20T20:16:29.660Z,50.90
2019-03-20T20:19:00.192Z,51.00
2019-03-20T20:21:30.082Z,51.00
2019-03-20T20:23:59.854Z,51.20
2019-03-20T20:26:29.610Z,51.20
2019-03-20T20:29:00.495Z,51.30
2019-03-20T20:31:30.309Z,51.20
2019-03-20T20:34:00.184Z,51.60
2019-03-20T20:36:30.714Z,51.50
2019-03-20T20:39:00.481Z,51.60
2019-03-20T20:41:31.886Z,51.40
2019-03-20T20:44:01.682Z,51.40
2019-03-20T20:46:31.569Z,51.40
2019-03-20T20:49:01.402Z,51.30
2019-03-20T20:51:31.242Z,52.50
2019-03-20T20:54:01.000Z,52.80
2019-03-20T20:56:30.883Z,53.00
2019-03-20T20:59:00.740Z,53.00
2019-03-20T21:01:30.618Z,52.50
2019-03-20T21:04:00.412Z,53.20
2019-03-20T21:06:30.172Z,53.90
2019-03-20T21:09:00.096Z,53.30
2019-03-20T21:11:29.982Z,53.60
2019-03-20T21:13:59.878Z,53.60
2019-03-20T21:16:29.749Z,53.40
2019-03-20T21:19:11.244Z,53.20
2019-03-20T21:21:42.402Z,53.40
2019-03-20T21:24:24.185Z,54.10
2019-03-20T21:27:02.641Z,53.90
2019-03-20T21:30:08.229Z,53.70
2019-03-20T21:32:59.042Z,53.70
2019-03-20T21:36:04.645Z,54.40
2019-03-20T21:38:34.527Z,54.70
2019-03-20T21:41:16.078Z,55.10
2019-03-20T21:44:06.316Z,55.10
2019-03-20T21:46:58.393Z,55.30
2019-03-20T21:49:29.262Z,55.30
2019-03-20T21:51:59.826Z,55.00
2019-03-20T21:54:50.457Z,55.30
2019-03-20T21:57:25.944Z,55.60
2019-03-20T22:00:10.978Z,55.60
2019-03-20T22:02:46.745Z,56.00
2019-03-20T22:05:39.199Z,55.70
2019-03-20T22:08:09.111Z,55.50
2019-03-20T22:10:59.810Z,56.00
2019-03-20T22:13:35.511Z,56.40
2019-03-20T22:16:42.919Z,56.30
2019-03-20T22:19:24.526Z,56.10
2019-03-20T22:22:06.414Z,55.90
2019-03-20T22:25:03.217Z,55.90
2019-03-20T22:27:55.188Z,55.70
2019-03-20T22:30:24.996Z,56.20
2019-03-20T22:33:17.236Z,56.70
2019-03-20T22:35:48.843Z,56.70
2019-03-20T22:38:27.394Z,56.50
2019-03-20T22:41:03.035Z,57.10
2019-03-20T22:43:41.525Z,57.10
2019-03-20T22:46:36.497Z,56.70
2019-03-20T22:49:31.470Z,56.50
2019-03-20T22:52:13.217Z,56.60
2019-03-20T22:55:00.645Z,56.70
2019-03-20T22:57:33.625Z,56.40
2019-03-20T23:00:04.613Z,56.50
2019-03-20T23:02:39.122Z,57.40
2019-03-20T23:05:10.419Z,57.80
2019-03-20T23:07:40.316Z,58.10
2019-03-20T23:10:15.876Z,58.10
2019-03-20T23:12:47.247Z,57.70
2019-03-20T23:15:19.001Z,57.40
2019-03-20T23:17:48.804Z,57.20
2019-03-20T23:20:24.943Z,57.30
2019-03-20T23:22:54.737Z,57.30
2019-03-20T23:25:24.752Z,57.80
2019-03-20T23:27:55.529Z,58.20
2019-03-20T23:30:31.482Z,58.60
2019-03-20T23:33:01.496Z,58.30
2019-03-20T23:35:31.327Z,58.60
2019-03-20T23:38:01.334Z,58.90
2019-03-20T23:40:31.218Z,58.60
2019-03-20T23:43:04.532Z,58.60
2019-03-20T23:45:34.572Z,58.90
2019-03-20T23:48:16.332Z,59.00
2019-03-20T23:50:46.622Z,59.10
2019-03-20T23:53:16.393Z,59.30
2019-03-20T23:55:47.165Z,59.30
2019-03-20T23:58:16.972Z,59.20
